createdAt,value
2022-10-26T00:03:42.837Z,-76
2022-10-26T00:08:45.564Z,-69
2022-10-26T00:13:48.375Z,-69
2022-10-26T00:18:50.638Z,-70
2022-10-26T00:23:52.665Z,-71
2022-10-26T00:28:55.824Z,-71
2022-10-26T00:33:57.867Z,-68
2022-10-26T00:38:59.912Z,-71
2022-10-26T00:44:21.965Z,-75
2022-10-26T00:49:24.328Z,-74
2022-10-26T00:54:26.501Z,-73
2022-10-26T00:59:28.504Z,-69
2022-10-26T01:04:30.482Z,-70
2022-10-26T01:09:33.125Z,-68
2022-10-26T01:14:35.481Z,-69
2022-10-26T01:19:57.614Z,-73
2022-10-26T01:25:29.281Z,-74
2022-10-26T01:30:34.059Z,-73
2022-10-26T01:35:44.786Z,-74
2022-10-26T01:40:53.093Z,-74
2022-10-26T01:45:56.713Z,-74
2022-10-26T01:50:59.729Z,-74
2022-10-26T01:56:02.507Z,-74
2022-10-26T02:01:34.453Z,-74
2022-10-26T02:06:39.493Z,-75
2022-10-26T02:11:52.118Z,-74
2022-10-26T02:17:04.650Z,-74
2022-10-26T02:22:31.705Z,-74
2022-10-26T02:27:39.054Z,-69
2022-10-26T02:32:45.384Z,-65
2022-10-26T02:37:49.283Z,-74
2022-10-26T02:42:53.160Z,-75
2022-10-26T02:48:03.351Z,-66
2022-10-26T02:53:25.448Z,-70
2022-10-26T02:58:31.101Z,-70
2022-10-26T03:03:33.180Z,-70
2022-10-26T03:08:35.231Z,-69
2022-10-26T03:13:37.213Z,-69
2022-10-26T03:18:39.285Z,-67
2022-10-26T03:23:42.204Z,-68
2022-10-26T03:28:44.113Z,-68
2022-10-26T03:33:46.270Z,-70
2022-10-26T03:38:48.164Z,-69
2022-10-26T03:43:50.168Z,-67
2022-10-26T03:48:58.252Z,-67
2022-10-26T03:54:01.737Z,-70
2022-10-26T03:59:04.167Z,-70
2022-10-26T04:04:06.447Z,-66
2022-10-26T04:09:08.564Z,-65
2022-10-26T04:14:10.525Z,-70
2022-10-26T04:19:12.434Z,-67
2022-10-26T04:24:14.711Z,-66
2022-10-26T04:29:16.746Z,-70
2022-10-26T04:34:18.952Z,-70
2022-10-26T04:39:20.884Z,-69
2022-10-26T04:44:23.065Z,-69
2022-10-26T04:49:25.254Z,-72
2022-10-26T04:54:27.176Z,-70
2022-10-26T04:59:29.091Z,-70
2022-10-26T05:04:31.269Z,-72
2022-10-26T05:09:33.338Z,-69
2022-10-26T05:14:35.339Z,-70
2022-10-26T05:19:37.489Z,-72
2022-10-26T05:24:39.524Z,-71
2022-10-26T05:29:41.643Z,-71
2022-10-26T05:34:44.130Z,-75
2022-10-26T05:39:46.328Z,-75
2022-10-26T05:44:48.573Z,-75
2022-10-26T05:49:50.556Z,-71
2022-10-26T05:54:52.790Z,-72
2022-10-26T05:59:55.025Z,-70
2022-10-26T06:05:05.171Z,-72
2022-10-26T06:10:07.939Z,-69
2022-10-26T06:15:16.381Z,-72
2022-10-26T06:20:50.851Z,-65
2022-10-26T06:26:26.856Z,-69
2022-10-26T06:31:28.956Z,-68
2022-10-26T06:36:32.097Z,-68
2022-10-26T06:41:35.802Z,-70
2022-10-26T06:46:46.283Z,-68
2022-10-26T06:51:57.515Z,-69
2022-10-26T06:56:59.893Z,-67
2022-10-26T07:02:05.578Z,-67
2022-10-26T07:07:11.949Z,-67
2022-10-26T07:12:13.979Z,-67
2022-10-26T07:17:17.007Z,-68
2022-10-26T07:22:18.925Z,-68
2022-10-26T07:27:21.005Z,-67
2022-10-26T07:32:23.216Z,-67
2022-10-26T07:37:25.311Z,-67
2022-10-26T07:42:31.932Z,-67
2022-10-26T07:47:34.040Z,-68
2022-10-26T07:52:36.990Z,-67
2022-10-26T07:57:39.405Z,-68
2022-10-26T08:02:41.677Z,-67
2022-10-26T08:07:44.876Z,-68
2022-10-26T08:12:46.907Z,-68
2022-10-26T08:17:49.255Z,-68
2022-10-26T08:22:52.848Z,-68
2022-10-26T08:27:54.768Z,-68
2022-10-26T08:33:05.528Z,-68
2022-10-26T08:38:07.652Z,-67
2022-10-26T08:43:25.377Z,-68
2022-10-26T08:48:40.661Z,-68
2022-10-26T08:54:00.565Z,-67
2022-10-26T08:59:28.519Z,-68
2022-10-26T09:04:32.269Z,-68
2022-10-26T09:09:58.930Z,-69
2022-10-26T09:15:25.637Z,-68
2022-10-26T09:20:49.912Z,-68
2022-10-26T09:26:00.816Z,-68
2022-10-26T09:31:04.548Z,-69
2022-10-26T09:36:16.924Z,-67
2022-10-26T09:41:37.252Z,-68
2022-10-26T09:47:12.985Z,-68
2022-10-26T09:52:16.166Z,-68
2022-10-26T09:57:20.730Z,-68
2022-10-26T10:02:47.172Z,-68
2022-10-26T10:07:49.601Z,-68
2022-10-26T10:12:52.968Z,-68
2022-10-26T10:17:58.626Z,-69
2022-10-26T10:23:03.721Z,-70
2022-10-26T10:28:22.918Z,-69
2022-10-26T10:33:41.457Z,-73
2022-10-26T10:38:45.675Z,-70
2022-10-26T10:43:51.804Z,-69
2022-10-26T10:49:02.630Z,-69
2022-10-26T10:54:05.958Z,-68
2022-10-26T10:59:18.313Z,-68
2022-10-26T11:04:45.861Z,-67
2022-10-26T11:09:49.626Z,-66
2022-10-26T11:15:12.656Z,-68
2022-10-26T11:20:24.928Z,-69
2022-10-26T11:25:35.718Z,-67
2022-10-26T11:30:44.055Z,-69
2022-10-26T11:35:50.058Z,-65
2022-10-26T11:41:25.083Z,-67
2022-10-26T11:46:42.605Z,-71
2022-10-26T11:52:04.853Z,-69
2022-10-26T11:57:07.772Z,-67
2022-10-26T12:02:17.997Z,-66
2022-10-26T12:07:29.084Z,-66
2022-10-26T12:13:06.688Z,-66
2022-10-26T12:18:54.064Z,-67
2022-10-26T12:23:56.737Z,-67
2022-10-26T12:29:01.711Z,-67
2022-10-26T12:34:25.344Z,-66
2022-10-26T12:39:37.011Z,-65
2022-10-26T12:45:00.160Z,-69
2022-10-26T12:50:08.382Z,-66
2022-10-26T12:55:18.141Z,-68
2022-10-26T13:00:27.856Z,-66
2022-10-26T13:05:39.066Z,-65
2022-10-26T13:11:01.125Z,-65
2022-10-26T13:16:03.945Z,-70
2022-10-26T13:21:12.067Z,-66
2022-10-26T13:26:18.255Z,-70
2022-10-26T13:31:31.227Z,-68
2022-10-26T13:36:36.752Z,-68
2022-10-26T13:41:42.520Z,-70
2022-10-26T13:46:46.735Z,-64
2022-10-26T13:51:52.262Z,-67
2022-10-26T13:57:28.070Z,-67
2022-10-26T14:02:32.964Z,-68
2022-10-26T14:12:51.294Z,-67
2022-10-26T14:17:55.523Z,-65
2022-10-26T14:22:57.880Z,-64
2022-10-26T14:28:00.056Z,-65
2022-10-26T14:33:19.821Z,-64
2022-10-26T14:38:27.762Z,-65
2022-10-26T14:43:31.063Z,-68
2022-10-26T14:48:34.872Z,-66
2022-10-26T14:53:41.391Z,-65
2022-10-26T14:58:44.408Z,-63
2022-10-26T15:03:48.368Z,-65
2022-10-26T15:08:57.191Z,-65
2022-10-26T15:14:00.422Z,-65
2022-10-26T15:19:10.884Z,-64
2022-10-26T15:24:38.982Z,-65
2022-10-26T15:29:46.734Z,-64
2022-10-26T15:35:19.555Z,-63
2022-10-26T15:40:22.236Z,-65
2022-10-26T15:45:34.207Z,-66
2022-10-26T15:50:37.819Z,-64
2022-10-26T15:55:42.937Z,-66
2022-10-26T16:00:45.481Z,-66
2022-10-26T16:05:51.582Z,-66
2022-10-26T16:10:53.856Z,-67
2022-10-26T16:15:55.958Z,-67
2022-10-26T16:20:58.007Z,-65
2022-10-26T16:26:00.164Z,-68
2022-10-26T16:31:08.661Z,-69
2022-10-26T16:36:12.810Z,-68
2022-10-26T16:41:17.090Z,-68
2022-10-26T16:46:21.358Z,-68
2022-10-26T16:51:28.523Z,-67
2022-10-26T16:56:30.628Z,-66
2022-10-26T17:01:33.074Z,-65
2022-10-26T17:06:35.255Z,-64
2022-10-26T17:11:37.536Z,-66
2022-10-26T17:16:39.524Z,-69
2022-10-26T17:21:43.579Z,-65
2022-10-26T17:26:45.690Z,-66
2022-10-26T17:31:47.697Z,-68
2022-10-26T17:36:49.777Z,-68
2022-10-26T17:41:52.020Z,-67
2022-10-26T17:46:53.957Z,-68
2022-10-26T17:51:55.967Z,-66
2022-10-26T17:56:58.741Z,-68
2022-10-26T18:02:01.034Z,-66
2022-10-26T18:07:04.234Z,-66
2022-10-26T18:12:06.581Z,-66
2022-10-26T18:17:08.753Z,-67
2022-10-26T18:22:11.020Z,-67
2022-10-26T18:27:13.511Z,-66
2022-10-26T18:32:15.521Z,-67
2022-10-26T18:37:17.796Z,-66
2022-10-26T18:42:19.797Z,-66
2022-10-26T18:47:21.773Z,-66
2022-10-26T18:52:23.958Z,-63
2022-10-26T18:57:28.480Z,-62
2022-10-26T19:02:30.649Z,-72
2022-10-26T19:07:33.182Z,-69
2022-10-26T19:12:35.297Z,-69
2022-10-26T19:17:37.322Z,-70
2022-10-26T19:22:40.873Z,-68
2022-10-26T19:27:51.709Z,-71
2022-10-26T19:33:01.073Z,-69
2022-10-26T19:38:05.556Z,-68
2022-10-26T19:43:07.536Z,-71
2022-10-26T19:48:09.485Z,-71
2022-10-26T19:53:11.749Z,-75
2022-10-26T19:58:14.161Z,-65
2022-10-26T20:03:16.678Z,-74
2022-10-26T20:08:19.758Z,-70
2022-10-26T20:13:22.401Z,-78
2022-10-26T20:18:24.526Z,-68
2022-10-26T20:23:26.715Z,-75
2022-10-26T20:28:29.768Z,-69
2022-10-26T20:33:38.117Z,-72
2022-10-26T20:38:40.629Z,-72
2022-10-26T20:43:42.985Z,-71
2022-10-26T20:48:45.338Z,-71
2022-10-26T20:53:53.577Z,-71
2022-10-26T20:58:58.421Z,-72
2022-10-26T21:04:02.199Z,-72
2022-10-26T21:09:04.256Z,-72
2022-10-26T21:14:06.485Z,-72
2022-10-26T21:19:08.509Z,-72
2022-10-26T21:24:10.762Z,-72
2022-10-26T21:29:12.927Z,-72
2022-10-26T21:34:14.876Z,-72
2022-10-26T21:39:16.886Z,-69
2022-10-26T21:44:40.315Z,-70
2022-10-26T21:54:50.093Z,-69
2022-10-26T21:59:58.566Z,-67
2022-10-26T22:05:00.564Z,-67
2022-10-26T22:10:16.978Z,-68
2022-10-26T22:15:18.937Z,-70
2022-10-26T22:20:20.892Z,-69
2022-10-26T22:25:22.879Z,-70
2022-10-26T22:30:25.120Z,-70
2022-10-26T22:35:30.293Z,-71
2022-10-26T22:40:32.304Z,-71
2022-10-26T22:45:34.278Z,-72
2022-10-26T22:50:38.394Z,-71
2022-10-26T22:55:42.068Z,-68
2022-10-26T23:00:46.044Z,-68
2022-10-26T23:05:48.245Z,-72
2022-10-26T23:10:50.405Z,-72
2022-10-26T23:15:52.641Z,-71
2022-10-26T23:20:54.857Z,-71
2022-10-26T23:26:04.593Z,-71
2022-10-26T23:31:06.995Z,-72
2022-10-26T23:36:09.025Z,-71
2022-10-26T23:41:12.969Z,-72
2022-10-26T23:46:15.494Z,-72
2022-10-26T23:51:17.605Z,-72
2022-10-26T23:56:19.634Z,-72
